Time;durP1;ratioP1;P1;durP2;ratioP2;P2;SDS_P1;SDS_P2;PMS_P1;PMS_P2;Temp;Humidity;BMP_temperature;BMP_pressure;BME280_temperature;BME280_humidity;BME280_pressure;Samples;Min_cycle;Max_cycle;Signal;HPM_P1;HPM_P2
2022/04/14 00:01:50;;;;;;;;;;;9.00;81.60;;;;;;5039093;28;19977;-66
2022/04/14 00:04:17;;;;;;;;;;;8.90;81.50;;;;;;5033289;28;19925;-66
2022/04/14 00:06:44;;;;;;;;;;;8.90;82.90;;;;;;5037610;28;19964;-66
2022/04/14 00:09:11;;;;;;;;;;;8.80;83.90;;;;;;5022676;28;19937;-66
2022/04/14 00:11:38;;;;;;;;;;;8.80;82.80;;;;;;5039435;28;19932;-66
2022/04/14 00:14:06;;;;;;;;;;;8.80;83.20;;;;;;5036986;28;19980;-66
2022/04/14 00:16:33;;;;;;;;;;;8.80;82.60;;;;;;5042121;28;19936;-66
2022/04/14 00:19:00;;;;;;;;;;;8.80;83.10;;;;;;5037953;28;19932;-66
2022/04/14 00:21:27;;;;;;;;;;;8.80;83.60;;;;;;5039271;28;19929;-66
2022/04/14 00:23:54;;;;;;;;;;;8.70;83.40;;;;;;5022568;28;19982;-66
2022/04/14 00:26:21;;;;;;;;;;;8.70;83.40;;;;;;5035804;28;19938;-66
2022/04/14 00:28:48;;;;;;;;;;;8.70;84.00;;;;;;5040356;28;19952;-66
2022/04/14 00:31:14;;;;;;;;;;;8.70;84.80;;;;;;5034765;28;19933;-66
2022/04/14 00:33:41;;;;;;;;;;;8.60;85.50;;;;;;5037227;28;20012;-66
2022/04/14 00:36:08;;;;;;;;;;;8.60;84.70;;;;;;5037397;28;19939;-66
2022/04/14 00:38:35;;;;;;;;;;;8.60;84.80;;;;;;5035320;28;19929;-66
2022/04/14 00:41:02;;;;;;;;;;;8.50;84.40;;;;;;5035003;28;19995;-66
2022/04/14 00:43:32;;;;;;;;;;;8.50;84.20;;;;;;5038678;28;20022;-66
2022/04/14 00:46:00;;;;;;;;;;;8.50;85.20;;;;;;5034428;28;19929;-66
2022/04/14 00:48:27;;;;;;;;;;;8.40;84.10;;;;;;5038117;28;20794;-66
2022/04/14 00:50:55;;;;;;;;;;;8.40;83.90;;;;;;5037344;28;19939;-66
2022/04/14 00:53:22;;;;;;;;;;;8.40;83.60;;;;;;5038534;28;20407;-66
2022/04/14 00:55:49;;;;;;;;;;;8.40;84.10;;;;;;5034958;28;19929;-66
2022/04/14 00:58:16;;;;;;;;;;;8.40;84.20;;;;;;5039403;28;19933;-66
2022/04/14 01:00:44;;;;;;;;;;;8.40;85.60;;;;;;5043186;28;20280;-66
2022/04/14 01:03:11;;;;;;;;;;;8.40;86.20;;;;;;5050226;28;20275;-66
2022/04/14 01:05:38;;;;;;;;;;;8.30;85.70;;;;;;5037732;28;20006;-66
2022/04/14 01:08:05;;;;;;;;;;;8.30;85.90;;;;;;5034114;28;20032;-66
2022/04/14 01:10:33;;;;;;;;;;;8.20;84.90;;;;;;5035223;28;20411;-66
2022/04/14 01:13:01;;;;;;;;;;;8.20;85.30;;;;;;5033735;28;19936;-66
2022/04/14 01:15:28;;;;;;;;;;;8.20;85.70;;;;;;5035340;28;19928;-66
2022/04/14 01:17:55;;;;;;;;;;;8.20;86.50;;;;;;5036527;28;20031;-66
2022/04/14 01:20:22;;;;;;;;;;;8.20;87.50;;;;;;5037121;28;19972;-66
2022/04/14 01:22:54;;;;;;;;;;;8.10;88.00;;;;;;5034679;28;19929;-66
2022/04/14 01:25:21;;;;;;;;;;;8.10;88.40;;;;;;5033482;28;20372;-66
2022/04/14 01:27:50;;;;;;;;;;;8.00;88.90;;;;;;5036203;28;19929;-66
2022/04/14 01:30:17;;;;;;;;;;;8.10;88.00;;;;;;5037147;28;19925;-66
2022/04/14 01:32:43;;;;;;;;;;;8.00;87.40;;;;;;5035872;28;19983;-66
2022/04/14 01:35:10;;;;;;;;;;;8.00;87.70;;;;;;5034870;28;19925;-66
2022/04/14 01:37:37;;;;;;;;;;;8.00;87.60;;;;;;5034116;28;19959;-66
2022/04/14 01:40:04;;;;;;;;;;;8.00;87.90;;;;;;5036604;28;20647;-66
2022/04/14 01:42:31;;;;;;;;;;;7.90;87.80;;;;;;5039031;28;19924;-66
2022/04/14 01:45:05;;;;;;;;;;;7.90;88.00;;;;;;5034474;28;19940;-66
2022/04/14 01:47:37;;;;;;;;;;;7.90;89.70;;;;;;5035917;28;19952;-66
2022/04/14 01:50:04;;;;;;;;;;;7.80;89.80;;;;;;5038101;28;19932;-67
2022/04/14 01:52:31;;;;;;;;;;;7.80;89.10;;;;;;5038226;28;20059;-66
2022/04/14 01:54:57;;;;;;;;;;;7.80;88.70;;;;;;5037029;28;20406;-66
2022/04/14 01:57:24;;;;;;;;;;;7.80;89.60;;;;;;5035638;28;20402;-66
2022/04/14 01:59:51;;;;;;;;;;;7.80;89.10;;;;;;5021254;28;19929;-66
2022/04/14 02:02:18;;;;;;;;;;;7.70;90.00;;;;;;5036539;28;20277;-66
2022/04/14 02:04:45;;;;;;;;;;;7.70;90.40;;;;;;5037455;28;19936;-66
2022/04/14 02:07:13;;;;;;;;;;;7.60;90.20;;;;;;5036460;28;19925;-66
2022/04/14 02:09:40;;;;;;;;;;;7.60;90.40;;;;;;5035689;28;19974;-66
2022/04/14 02:12:07;;;;;;;;;;;7.60;90.20;;;;;;5038980;28;19933;-66
2022/04/14 02:14:34;;;;;;;;;;;7.60;90.40;;;;;;5033585;28;20042;-66
2022/04/14 02:17:01;;;;;;;;;;;7.60;90.30;;;;;;5034080;28;19929;-66
2022/04/14 02:19:28;;;;;;;;;;;7.50;90.40;;;;;;5036138;28;19933;-67
2022/04/14 02:21:58;;;;;;;;;;;7.50;90.00;;;;;;5035648;28;19929;-66
2022/04/14 02:24:25;;;;;;;;;;;7.50;90.00;;;;;;5035074;28;19979;-66
2022/04/14 02:26:52;;;;;;;;;;;7.50;89.20;;;;;;5038857;28;19933;-67
2022/04/14 02:29:19;;;;;;;;;;;7.50;90.00;;;;;;5038209;28;19951;-66
2022/04/14 02:31:46;;;;;;;;;;;7.50;90.40;;;;;;5030065;28;19929;-66
2022/04/14 02:34:13;;;;;;;;;;;7.40;89.60;;;;;;5031976;28;19933;-67
2022/04/14 02:36:40;;;;;;;;;;;7.40;89.20;;;;;;5037116;28;19985;-66
2022/04/14 02:39:07;;;;;;;;;;;7.40;90.10;;;;;;5029686;28;20630;-66
2022/04/14 02:41:34;;;;;;;;;;;7.30;90.10;;;;;;5030776;28;19940;-66
2022/04/14 02:44:01;;;;;;;;;;;7.30;90.00;;;;;;5031878;28;19929;-66
2022/04/14 02:46:28;;;;;;;;;;;7.30;90.30;;;;;;5035951;28;19933;-66
2022/04/14 02:48:54;;;;;;;;;;;7.20;90.30;;;;;;5033844;28;19937;-66
2022/04/14 02:51:22;;;;;;;;;;;7.20;89.80;;;;;;5032679;28;19924;-67
2022/04/14 02:53:48;;;;;;;;;;;7.20;90.10;;;;;;5047484;28;19933;-66
2022/04/14 02:56:15;;;;;;;;;;;7.20;91.00;;;;;;5029523;28;20058;-66
2022/04/14 02:58:42;;;;;;;;;;;7.10;90.40;;;;;;5033961;28;20358;-66
2022/04/14 03:01:09;;;;;;;;;;;7.10;90.90;;;;;;5032827;28;20406;-66
2022/04/14 03:03:36;;;;;;;;;;;7.10;90.90;;;;;;5031858;28;19951;-66
2022/04/14 03:06:03;;;;;;;;;;;7.10;90.50;;;;;;5030600;28;19952;-66
2022/04/14 03:08:30;;;;;;;;;;;7.00;90.70;;;;;;5034903;28;19933;-66
2022/04/14 03:10:57;;;;;;;;;;;7.00;91.20;;;;;;5035844;28;19998;-66
2022/04/14 03:13:24;;;;;;;;;;;7.00;90.90;;;;;;5031843;28;19986;-66
2022/04/14 03:15:51;;;;;;;;;;;7.00;91.50;;;;;;5030408;28;19935;-66
2022/04/14 03:18:18;;;;;;;;;;;7.00;91.70;;;;;;5029943;28;19940;-66
2022/04/14 03:20:45;;;;;;;;;;;7.00;91.30;;;;;;5031937;28;20438;-66
2022/04/14 03:23:12;;;;;;;;;;;6.90;91.90;;;;;;5031032;28;19960;-66
2022/04/14 03:25:39;;;;;;;;;;;6.90;91.90;;;;;;5027961;28;20399;-66
2022/04/14 03:28:06;;;;;;;;;;;6.90;91.60;;;;;;5028754;28;22106;-66
2022/04/14 03:30:33;;;;;;;;;;;6.90;91.20;;;;;;5027999;28;19951;-66
2022/04/14 03:33:00;;;;;;;;;;;6.80;91.50;;;;;;5030565;28;19929;-66
2022/04/14 03:35:27;;;;;;;;;;;6.80;91.50;;;;;;5031219;28;20427;-66
2022/04/14 03:37:54;;;;;;;;;;;6.80;92.10;;;;;;5034328;28;19928;-66
2022/04/14 03:40:21;;;;;;;;;;;6.70;92.10;;;;;;5034821;28;20378;-66
2022/04/14 03:42:48;;;;;;;;;;;6.70;91.90;;;;;;5045643;28;20371;-66
2022/04/14 03:45:15;;;;;;;;;;;6.70;91.70;;;;;;5031270;28;19929;-66
2022/04/14 03:47:42;;;;;;;;;;;6.60;92.10;;;;;;5045146;28;19955;-66
2022/04/14 03:50:09;;;;;;;;;;;6.60;92.60;;;;;;5028814;28;19933;-66
2022/04/14 03:52:36;;;;;;;;;;;6.60;92.60;;;;;;5028921;28;19940;-66
2022/04/14 03:55:03;;;;;;;;;;;6.60;92.20;;;;;;5031571;28;19928;-66
2022/04/14 03:57:30;;;;;;;;;;;6.50;92.40;;;;;;5037328;28;20451;-66
2022/04/14 03:59:57;;;;;;;;;;;6.60;92.70;;;;;;5032118;28;19933;-66
2022/04/14 04:02:23;;;;;;;;;;;6.50;92.40;;;;;;5031459;28;20024;-66
2022/04/14 04:04:50;;;;;;;;;;;6.50;92.30;;;;;;5032844;28;19928;-66
2022/04/14 04:07:17;;;;;;;;;;;6.50;92.70;;;;;;5029416;28;20023;-66
2022/04/14 04:09:44;;;;;;;;;;;6.40;92.60;;;;;;5033240;28;19939;-66
2022/04/14 04:12:11;;;;;;;;;;;6.40;92.70;;;;;;5036182;28;19937;-66
2022/04/14 04:14:38;;;;;;;;;;;6.40;92.90;;;;;;5032566;28;19928;-67
2022/04/14 04:17:05;;;;;;;;;;;6.50;93.20;;;;;;5030597;28;20024;-66
2022/04/14 04:19:32;;;;;;;;;;;6.40;92.90;;;;;;5031888;28;19929;-66
2022/04/14 04:21:59;;;;;;;;;;;6.40;93.20;;;;;;5028398;28;19933;-66
2022/04/14 04:24:26;;;;;;;;;;;6.40;93.00;;;;;;5034180;28;19929;-67
2022/04/14 04:26:53;;;;;;;;;;;6.30;93.50;;;;;;5031341;28;20336;-66
2022/04/14 04:29:20;;;;;;;;;;;6.30;93.50;;;;;;5043256;28;19956;-66
2022/04/14 04:31:46;;;;;;;;;;;6.30;93.70;;;;;;5029539;28;19929;-66
2022/04/14 04:34:14;;;;;;;;;;;6.30;93.90;;;;;;5029702;28;19933;-66
2022/04/14 04:36:41;;;;;;;;;;;6.30;93.60;;;;;;5027294;28;19933;-66
2022/04/14 04:39:08;;;;;;;;;;;6.30;94.10;;;;;;5034447;28;19929;-66
2022/04/14 04:41:34;;;;;;;;;;;6.30;93.90;;;;;;5044049;28;20418;-66
2022/04/14 04:44:01;;;;;;;;;;;6.30;93.40;;;;;;5032916;28;20018;-66
2022/04/14 04:46:28;;;;;;;;;;;6.30;93.90;;;;;;5031394;28;19935;-66
2022/04/14 04:48:56;;;;;;;;;;;6.40;94.00;;;;;;5032522;28;19979;-66
2022/04/14 04:51:24;;;;;;;;;;;6.40;94.10;;;;;;5050574;28;19971;-66
2022/04/14 04:53:52;;;;;;;;;;;6.30;94.20;;;;;;5034883;28;19936;-66
2022/04/14 04:56:19;;;;;;;;;;;6.30;94.30;;;;;;5034120;28;20299;-66
2022/04/14 04:58:46;;;;;;;;;;;6.40;94.00;;;;;;5033261;28;19932;-66
2022/04/14 05:01:13;;;;;;;;;;;6.40;93.90;;;;;;5009893;28;20063;-66
2022/04/14 05:03:40;;;;;;;;;;;6.40;94.60;;;;;;4992833;28;19933;-66
2022/04/14 05:06:07;;;;;;;;;;;6.40;94.20;;;;;;4991421;28;19940;-66
2022/04/14 05:08:34;;;;;;;;;;;6.40;93.80;;;;;;4991550;28;20068;-67
2022/04/14 05:11:07;;;;;;;;;;;6.50;93.50;;;;;;4983465;28;20142;-65
2022/04/14 05:13:34;;;;;;;;;;;6.50;93.40;;;;;;4989081;28;19985;-67
2022/04/14 05:16:02;;;;;;;;;;;6.50;93.30;;;;;;4989929;28;20054;-66
2022/04/14 05:18:29;;;;;;;;;;;6.70;93.40;;;;;;4989715;28;19932;-65
2022/04/14 05:20:56;;;;;;;;;;;6.80;93.70;;;;;;4987772;28;20486;-65
2022/04/14 05:23:23;;;;;;;;;;;6.80;93.30;;;;;;4980318;28;19933;-65
2022/04/14 05:25:50;;;;;;;;;;;6.80;93.40;;;;;;4987256;28;22422;-66
2022/04/14 05:28:17;;;;;;;;;;;6.80;93.50;;;;;;4991271;28;20600;-66
2022/04/14 05:30:44;;;;;;;;;;;6.90;93.40;;;;;;4988490;28;21799;-65
2022/04/14 05:33:12;;;;;;;;;;;6.90;92.80;;;;;;4990612;28;19940;-66
2022/04/14 05:35:39;;;;;;;;;;;7.00;92.70;;;;;;4992065;28;19955;-65
2022/04/14 05:38:06;;;;;;;;;;;7.00;92.70;;;;;;4991150;28;19940;-66
2022/04/14 05:40:35;;;;;;;;;;;7.10;92.50;;;;;;4994163;28;20127;-65
2022/04/14 05:43:02;;;;;;;;;;;7.10;92.80;;;;;;4987763;28;19933;-66
2022/04/14 05:45:30;;;;;;;;;;;7.10;92.50;;;;;;4996607;28;19940;-66
2022/04/14 05:47:57;;;;;;;;;;;7.10;92.70;;;;;;4989072;28;19940;-65
2022/04/14 05:50:24;;;;;;;;;;;7.20;92.60;;;;;;4991345;28;20103;-67
2022/04/14 05:52:51;;;;;;;;;;;7.20;92.80;;;;;;4990046;28;20412;-66
2022/04/14 05:55:18;;;;;;;;;;;7.30;92.50;;;;;;4994455;28;20642;-65
2022/04/14 05:57:46;;;;;;;;;;;7.30;92.60;;;;;;4987523;28;19933;-66
2022/04/14 06:00:13;;;;;;;;;;;7.30;92.40;;;;;;4986679;28;22176;-65
2022/04/14 06:02:40;;;;;;;;;;;7.40;92.10;;;;;;4984264;28;20135;-65
2022/04/14 06:05:08;;;;;;;;;;;7.50;91.70;;;;;;5002539;28;19945;-65
2022/04/14 06:07:35;;;;;;;;;;;7.60;91.80;;;;;;4988514;28;19976;-65
2022/04/14 06:10:02;;;;;;;;;;;7.70;91.70;;;;;;5006385;28;19940;-65
2022/04/14 06:12:29;;;;;;;;;;;7.70;91.20;;;;;;4986624;28;20028;-65
2022/04/14 06:14:56;;;;;;;;;;;7.80;91.00;;;;;;4973008;28;19933;-65
2022/04/14 06:17:23;;;;;;;;;;;7.90;90.90;;;;;;4986478;28;19983;-65
2022/04/14 06:19:50;;;;;;;;;;;8.00;90.70;;;;;;4987723;28;20629;-65
2022/04/14 06:22:17;;;;;;;;;;;8.00;90.40;;;;;;4996578;28;19932;-65
2022/04/14 06:24:44;;;;;;;;;;;8.30;90.40;;;;;;4991469;28;20069;-65
2022/04/14 06:27:11;;;;;;;;;;;8.50;90.20;;;;;;4989161;28;19940;-66
2022/04/14 06:29:38;;;;;;;;;;;8.60;90.20;;;;;;4990315;28;19937;-66
2022/04/14 06:32:05;;;;;;;;;;;8.60;89.60;;;;;;5003425;28;21072;-65
2022/04/14 06:34:32;;;;;;;;;;;8.90;88.50;;;;;;4982785;28;19933;-67
2022/04/14 06:36:59;;;;;;;;;;;9.10;87.80;;;;;;4990459;28;19933;-65
2022/04/14 06:39:26;;;;;;;;;;;9.30;87.50;;;;;;4984152;28;19932;-65
2022/04/14 06:41:53;;;;;;;;;;;9.40;85.20;;;;;;4989003;28;19933;-65
2022/04/14 06:44:20;;;;;;;;;;;9.70;83.30;;;;;;5003186;28;19933;-66
2022/04/14 06:46:47;;;;;;;;;;;9.80;81.60;;;;;;4985132;28;20023;-65
2022/04/14 06:49:15;;;;;;;;;;;9.90;78.10;;;;;;4987490;28;20082;-66
2022/04/14 06:51:42;;;;;;;;;;;10.10;76.20;;;;;;4988338;28;20572;-66
2022/04/14 06:54:09;;;;;;;;;;;10.40;75.90;;;;;;4987485;28;19975;-66
2022/04/14 06:56:36;;;;;;;;;;;10.60;75.80;;;;;;4988335;28;20030;-67
2022/04/14 06:59:03;;;;;;;;;;;10.70;74.00;;;;;;4986274;28;19934;-67
2022/04/14 07:01:30;;;;;;;;;;;11.00;74.50;;;;;;4987833;28;19933;-67
2022/04/14 07:03:57;;;;;;;;;;;11.20;74.50;;;;;;4986332;28;19932;-67
2022/04/14 07:06:24;;;;;;;;;;;11.30;71.40;;;;;;4983087;28;20434;-66
2022/04/14 07:08:51;;;;;;;;;;;11.40;73.30;;;;;;4985757;28;20075;-67
2022/04/14 07:11:18;;;;;;;;;;;11.60;74.70;;;;;;4984222;28;19965;-66
2022/04/14 07:13:46;;;;;;;;;;;11.70;74.30;;;;;;5002618;28;19967;-66
2022/04/14 07:16:13;;;;;;;;;;;11.80;71.10;;;;;;4994375;28;19949;-66
2022/04/14 07:18:40;;;;;;;;;;;12.10;70.70;;;;;;4987458;28;20025;-66
2022/04/14 07:21:08;;;;;;;;;;;12.30;69.10;;;;;;4986143;28;19933;-66
2022/04/14 07:23:34;;;;;;;;;;;12.40;65.20;;;;;;4976387;28;20331;-66
2022/04/14 07:26:02;;;;;;;;;;;12.50;64.80;;;;;;4996378;28;20658;-66
2022/04/14 07:28:29;;;;;;;;;;;12.50;60.40;;;;;;4988146;28;19940;-66
2022/04/14 07:30:55;;;;;;;;;;;12.70;61.40;;;;;;4984740;28;21244;-65
2022/04/14 07:33:22;;;;;;;;;;;12.90;60.40;;;;;;4997404;28;19972;-66
2022/04/14 07:35:51;;;;;;;;;;;13.00;60.20;;;;;;4978047;28;19933;-66
2022/04/14 07:38:18;;;;;;;;;;;13.10;56.30;;;;;;4986853;28;20047;-66
2022/04/14 07:40:45;;;;;;;;;;;13.10;59.80;;;;;;4984440;28;19940;-66
2022/04/14 07:43:12;;;;;;;;;;;13.20;57.60;;;;;;4986042;28;20153;-67
2022/04/14 07:45:39;;;;;;;;;;;13.40;56.60;;;;;;4982456;28;19937;-66
2022/04/14 07:48:08;;;;;;;;;;;13.50;55.10;;;;;;4988437;28;19933;-67
2022/04/14 07:50:35;;;;;;;;;;;13.60;55.30;;;;;;5001539;28;20483;-66
2022/04/14 07:53:02;;;;;;;;;;;13.90;55.20;;;;;;4987584;28;19934;-66
2022/04/14 07:55:31;;;;;;;;;;;14.00;55.00;;;;;;4988174;28;20019;-66
2022/04/14 07:58:05;;;;;;;;;;;14.10;52.00;;;;;;4986890;28;20033;-66
2022/04/14 08:00:33;;;;;;;;;;;14.00;53.70;;;;;;4983757;28;20404;-66
2022/04/14 08:03:01;;;;;;;;;;;14.20;54.60;;;;;;4974616;28;22226;-66
2022/04/14 08:05:33;;;;;;;;;;;14.40;53.80;;;;;;4988838;28;20312;-66
2022/04/14 08:08:08;;;;;;;;;;;14.60;53.50;;;;;;4986395;28;20750;-66
2022/04/14 08:10:35;;;;;;;;;;;14.80;50.40;;;;;;4987625;28;19940;-66
2022/04/14 08:13:02;;;;;;;;;;;14.80;49.00;;;;;;4985688;28;19933;-67
2022/04/14 08:15:30;;;;;;;;;;;15.10;48.60;;;;;;4988501;28;19933;-66
2022/04/14 08:17:58;;;;;;;;;;;15.30;46.60;;;;;;4989631;28;19998;-67
2022/04/14 08:20:25;;;;;;;;;;;15.40;45.90;;;;;;4984218;28;19933;-68
2022/04/14 08:22:54;;;;;;;;;;;15.60;43.20;;;;;;4991614;28;20438;-67
2022/04/14 08:25:22;;;;;;;;;;;15.80;42.30;;;;;;4989427;28;19939;-66
2022/04/14 08:27:49;;;;;;;;;;;15.90;42.40;;;;;;4995840;28;20060;-67
2022/04/14 08:30:18;;;;;;;;;;;16.00;43.50;;;;;;4989977;28;21015;-67
2022/04/14 08:32:45;;;;;;;;;;;16.10;41.60;;;;;;4991196;28;19933;-66
2022/04/14 08:35:13;;;;;;;;;;;16.10;42.10;;;;;;4992088;28;19940;-66
2022/04/14 08:37:40;;;;;;;;;;;15.90;43.60;;;;;;4990353;28;20065;-66
2022/04/14 08:40:08;;;;;;;;;;;15.80;41.10;;;;;;4988138;28;19933;-67
2022/04/14 08:42:39;;;;;;;;;;;15.90;44.90;;;;;;4990743;28;19939;-69
2022/04/14 08:45:08;;;;;;;;;;;16.10;40.30;;;;;;4991450;28;19944;-67
2022/04/14 08:47:36;;;;;;;;;;;16.10;39.30;;;;;;4972158;28;20004;-67
2022/04/14 08:50:15;;;;;;;;;;;16.40;41.50;;;;;;4990419;28;20696;-67
2022/04/14 08:52:42;;;;;;;;;;;16.50;41.20;;;;;;4989556;28;19940;-67
2022/04/14 08:55:11;;;;;;;;;;;16.70;41.80;;;;;;4989458;28;19972;-66
2022/04/14 08:57:38;;;;;;;;;;;16.70;41.00;;;;;;4991246;28;22384;-66
2022/04/14 09:00:06;;;;;;;;;;;16.70;45.50;;;;;;4987615;28;19933;-66
2022/04/14 09:02:34;;;;;;;;;;;16.90;43.50;;;;;;4988842;28;20952;-66
2022/04/14 09:05:02;;;;;;;;;;;16.70;40.40;;;;;;4988573;28;19940;-66
2022/04/14 09:07:29;;;;;;;;;;;16.90;39.80;;;;;;4986739;28;19976;-66
2022/04/14 09:09:55;;;;;;;;;;;16.90;40.80;;;;;;4989444;28;19933;-67
2022/04/14 09:12:23;;;;;;;;;;;17.20;41.90;;;;;;4992070;28;19956;-66
2022/04/14 09:14:49;;;;;;;;;;;17.40;43.00;;;;;;4989731;28;20122;-67
2022/04/14 09:17:17;;;;;;;;;;;17.60;43.10;;;;;;4994733;28;20902;-66
2022/04/14 09:19:44;;;;;;;;;;;17.80;40.90;;;;;;4996511;28;19932;-66
2022/04/14 09:22:12;;;;;;;;;;;17.90;39.30;;;;;;4988922;28;20027;-67
2022/04/14 09:24:42;;;;;;;;;;;17.70;39.00;;;;;;4989049;28;21537;-67
2022/04/14 09:27:09;;;;;;;;;;;18.10;41.70;;;;;;5002421;28;20379;-70
2022/04/14 09:29:46;;;;;;;;;;;18.10;41.60;;;;;;4988822;28;22408;-71
2022/04/14 09:32:26;;;;;;;;;;;18.10;40.10;;;;;;4968402;28;19987;-67
2022/04/14 09:34:53;;;;;;;;;;;17.90;37.10;;;;;;4985746;28;20672;-67
2022/04/14 09:37:23;;;;;;;;;;;18.10;37.70;;;;;;5002667;28;20047;-66
2022/04/14 09:39:55;;;;;;;;;;;18.20;38.20;;;;;;4986066;28;19937;-68
2022/04/14 09:42:22;;;;;;;;;;;18.20;40.10;;;;;;4984571;28;20042;-69
2022/04/14 09:44:52;;;;;;;;;;;18.40;40.10;;;;;;4995116;28;19986;-68
2022/04/14 09:47:23;;;;;;;;;;;18.50;39.50;;;;;;4987430;28;19933;-67
2022/04/14 09:49:50;;;;;;;;;;;18.50;38.10;;;;;;4986475;28;19933;-68
2022/04/14 09:52:17;;;;;;;;;;;18.60;38.00;;;;;;4989713;28;20051;-66
2022/04/14 09:54:45;;;;;;;;;;;18.70;36.90;;;;;;4988147;28;20272;-67
2022/04/14 09:57:12;;;;;;;;;;;18.80;38.40;;;;;;4986398;28;19955;-67
2022/04/14 09:59:40;;;;;;;;;;;18.90;38.90;;;;;;4995048;28;19933;-67
2022/04/14 10:02:12;;;;;;;;;;;19.10;40.00;;;;;;4999435;28;19933;-66
2022/04/14 10:04:46;;;;;;;;;;;19.00;35.20;;;;;;4986937;28;20016;-67
2022/04/14 10:07:16;;;;;;;;;;;18.90;35.90;;;;;;4985679;28;20046;-67
2022/04/14 10:09:48;;;;;;;;;;;19.00;36.50;;;;;;4983900;28;22220;-68
2022/04/14 10:12:18;;;;;;;;;;;19.30;38.50;;;;;;4984605;28;22450;-67
2022/04/14 10:15:06;;;;;;;;;;;19.40;38.00;;;;;;4992082;28;23652;-68
2022/04/14 10:17:38;;;;;;;;;;;19.30;38.90;;;;;;4978460;28;19979;-67
2022/04/14 10:20:06;;;;;;;;;;;19.20;38.80;;;;;;4996856;28;19933;-67
2022/04/14 10:22:33;;;;;;;;;;;19.00;38.10;;;;;;4989846;28;22508;-67
2022/04/14 10:25:01;;;;;;;;;;;18.80;37.20;;;;;;4990563;28;19933;-67
2022/04/14 10:27:29;;;;;;;;;;;18.80;37.60;;;;;;4989780;28;20884;-67
2022/04/14 10:29:56;;;;;;;;;;;18.70;37.70;;;;;;4986388;28;19987;-68
2022/04/14 10:32:23;;;;;;;;;;;18.70;39.50;;;;;;4995392;28;19933;-67
2022/04/14 10:34:50;;;;;;;;;;;18.60;36.80;;;;;;4990440;28;19978;-67
2022/04/14 10:37:29;;;;;;;;;;;18.60;36.90;;;;;;4986351;28;19932;-67
2022/04/14 10:39:56;;;;;;;;;;;18.50;38.50;;;;;;4984648;28;20700;-67
2022/04/14 10:42:24;;;;;;;;;;;18.60;36.70;;;;;;5001924;28;20054;-67
2022/04/14 10:44:52;;;;;;;;;;;18.60;36.60;;;;;;4986550;28;20439;-67
2022/04/14 10:47:37;;;;;;;;;;;18.70;36.50;;;;;;4986216;28;19936;-68
2022/04/14 10:50:17;;;;;;;;;;;18.80;34.30;;;;;;4991704;28;19987;-67
2022/04/14 10:53:03;;;;;;;;;;;19.00;36.00;;;;;;4984423;28;19982;-68
2022/04/14 10:55:39;;;;;;;;;;;19.20;38.20;;;;;;4989497;28;19985;-68
2022/04/14 10:58:06;;;;;;;;;;;19.50;36.50;;;;;;4986629;28;19933;-68
2022/04/14 11:00:37;;;;;;;;;;;19.20;33.10;;;;;;4987307;28;22398;-68
2022/04/14 11:03:13;;;;;;;;;;;19.70;38.60;;;;;;4987107;28;20158;-69
2022/04/14 11:05:48;;;;;;;;;;;19.80;35.20;;;;;;4984088;28;19937;-68
2022/04/14 11:08:26;;;;;;;;;;;19.80;37.70;;;;;;4994853;28;19976;-68
2022/04/14 11:10:53;;;;;;;;;;;19.70;34.70;;;;;;4986007;28;19933;-68
2022/04/14 11:13:20;;;;;;;;;;;19.80;37.60;;;;;;4986342;28;19933;-68
2022/04/14 11:15:47;;;;;;;;;;;19.70;34.00;;;;;;4981152;28;20026;-68
2022/04/14 11:18:16;;;;;;;;;;;19.90;34.50;;;;;;4987126;28;19932;-68
2022/04/14 11:20:49;;;;;;;;;;;20.20;36.00;;;;;;5002467;28;19976;-67
2022/04/14 11:23:20;;;;;;;;;;;20.10;34.70;;;;;;4986795;28;19933;-67
2022/04/14 11:25:48;;;;;;;;;;;20.10;32.20;;;;;;4993366;28;19937;-67
2022/04/14 11:28:15;;;;;;;;;;;20.30;34.80;;;;;;4984235;28;19940;-67
2022/04/14 11:30:43;;;;;;;;;;;20.20;33.70;;;;;;4986546;28;19975;-67
2022/04/14 11:33:14;;;;;;;;;;;20.40;34.60;;;;;;4984468;28;19933;-68
2022/04/14 11:35:45;;;;;;;;;;;20.40;36.80;;;;;;4983680;28;20031;-68
2022/04/14 11:38:31;;;;;;;;;;;20.60;33.40;;;;;;4986502;28;19937;-69
2022/04/14 11:40:58;;;;;;;;;;;20.70;36.50;;;;;;4986979;28;20616;-69
2022/04/14 11:43:26;;;;;;;;;;;20.70;33.80;;;;;;4987592;28;20048;-69
2022/04/14 11:46:09;;;;;;;;;;;20.60;35.00;;;;;;4987278;28;19932;-69
2022/04/14 11:48:36;;;;;;;;;;;20.70;34.50;;;;;;4988800;28;19940;-71
2022/04/14 11:51:03;;;;;;;;;;;20.60;33.90;;;;;;4989776;28;20404;-66
2022/04/14 11:53:30;;;;;;;;;;;20.60;32.40;;;;;;4986449;28;19983;-66
2022/04/14 11:56:18;;;;;;;;;;;20.60;31.50;;;;;;4992565;28;19991;-67
2022/04/14 11:58:45;;;;;;;;;;;20.70;32.80;;;;;;4989861;28;20082;-67
2022/04/14 12:01:13;;;;;;;;;;;20.80;31.80;;;;;;4990700;28;19972;-67
2022/04/14 12:03:41;;;;;;;;;;;20.90;32.90;;;;;;4991897;28;20002;-68
2022/04/14 12:06:10;;;;;;;;;;;21.10;33.10;;;;;;4993746;28;20680;-66
2022/04/14 12:08:37;;;;;;;;;;;21.00;32.40;;;;;;4992013;28;20012;-67
2022/04/14 12:11:16;;;;;;;;;;;21.00;34.00;;;;;;4988712;28;21404;-66
2022/04/14 12:13:43;;;;;;;;;;;21.10;30.00;;;;;;4992347;28;20958;-67
2022/04/14 12:16:10;;;;;;;;;;;21.10;34.60;;;;;;4990952;28;19939;-67
2022/04/14 12:18:39;;;;;;;;;;;20.80;29.60;;;;;;4990636;28;19933;-67
2022/04/14 12:21:06;;;;;;;;;;;21.00;32.10;;;;;;4978170;28;19932;-70
2022/04/14 12:23:33;;;;;;;;;;;21.10;30.90;;;;;;4989344;28;19933;-67
2022/04/14 12:26:02;;;;;;;;;;;21.20;32.40;;;;;;4993229;28;19933;-66
2022/04/14 12:28:29;;;;;;;;;;;20.90;30.70;;;;;;5004737;28;20143;-66
2022/04/14 12:31:08;;;;;;;;;;;20.90;31.20;;;;;;4992122;28;19940;-68
2022/04/14 12:33:35;;;;;;;;;;;21.20;33.90;;;;;;4991477;28;19956;-67
2022/04/14 12:36:06;;;;;;;;;;;21.20;32.20;;;;;;4998520;28;22368;-67
2022/04/14 12:38:44;;;;;;;;;;;21.30;32.00;;;;;;4973697;28;19933;-68
2022/04/14 12:41:19;;;;;;;;;;;21.30;32.50;;;;;;4990766;28;19933;-68
2022/04/14 12:43:56;;;;;;;;;;;21.40;31.90;;;;;;4987551;28;19933;-68
2022/04/14 12:46:38;;;;;;;;;;;21.40;32.60;;;;;;5005256;28;19940;-68
2022/04/14 12:49:08;;;;;;;;;;;21.60;33.00;;;;;;4980161;28;20297;-71
2022/04/14 12:51:51;;;;;;;;;;;21.60;32.00;;;;;;4986512;28;19941;-68
2022/04/14 12:54:18;;;;;;;;;;;21.60;32.10;;;;;;4986754;28;19936;-69
2022/04/14 12:57:01;;;;;;;;;;;21.60;31.40;;;;;;4984897;28;19940;-67
2022/04/14 12:59:29;;;;;;;;;;;21.70;33.00;;;;;;5001309;28;19933;-68
2022/04/14 13:02:02;;;;;;;;;;;21.60;33.10;;;;;;4983780;28;20768;-68
2022/04/14 13:04:30;;;;;;;;;;;21.60;31.50;;;;;;4985826;28;20734;-67
2022/04/14 13:06:58;;;;;;;;;;;21.70;30.70;;;;;;4998300;28;19933;-68
2022/04/14 13:09:25;;;;;;;;;;;21.80;33.20;;;;;;4985559;28;19944;-69
2022/04/14 13:11:52;;;;;;;;;;;21.80;33.60;;;;;;4985583;28;19939;-68
2022/04/14 13:14:20;;;;;;;;;;;21.80;31.70;;;;;;4993494;28;19986;-68
2022/04/14 13:16:48;;;;;;;;;;;21.80;30.80;;;;;;5001265;28;19933;-68
2022/04/14 13:19:15;;;;;;;;;;;21.70;29.40;;;;;;4985024;28;19933;-69
2022/04/14 13:21:43;;;;;;;;;;;21.90;30.40;;;;;;4992287;28;19940;-68
2022/04/14 13:24:10;;;;;;;;;;;21.80;28.80;;;;;;4984406;28;20047;-68
2022/04/14 13:26:37;;;;;;;;;;;21.80;29.40;;;;;;4982903;28;19964;-68
2022/04/14 13:29:05;;;;;;;;;;;21.80;29.10;;;;;;4984497;28;19940;-68
2022/04/14 13:31:32;;;;;;;;;;;21.80;28.30;;;;;;4986052;28;19945;-68
2022/04/14 13:33:59;;;;;;;;;;;22.00;28.00;;;;;;4981590;28;19933;-71
2022/04/14 13:36:26;;;;;;;;;;;22.00;29.20;;;;;;4978985;28;20027;-68
2022/04/14 13:38:53;;;;;;;;;;;22.10;30.30;;;;;;4980700;28;19933;-68
2022/04/14 13:41:20;;;;;;;;;;;22.00;30.00;;;;;;4977697;28;19933;-69
2022/04/14 13:43:47;;;;;;;;;;;22.00;31.00;;;;;;4980510;28;20082;-68
2022/04/14 13:46:14;;;;;;;;;;;21.90;29.60;;;;;;4984638;28;19986;-67
2022/04/14 13:48:41;;;;;;;;;;;22.00;29.40;;;;;;4983337;28;20071;-68
2022/04/14 13:51:10;;;;;;;;;;;21.80;29.60;;;;;;5003138;28;19972;-68
2022/04/14 13:53:38;;;;;;;;;;;21.80;29.00;;;;;;4990055;28;19963;-72
2022/04/14 13:56:05;;;;;;;;;;;22.00;30.80;;;;;;4981019;28;22371;-68
2022/04/14 13:58:34;;;;;;;;;;;21.90;29.60;;;;;;4989463;28;20611;-68
2022/04/14 14:01:01;;;;;;;;;;;21.90;30.10;;;;;;4981756;28;20097;-68
2022/04/14 14:03:31;;;;;;;;;;;21.70;28.60;;;;;;4982719;28;20068;-67
2022/04/14 14:05:59;;;;;;;;;;;21.80;30.00;;;;;;4986737;28;20063;-67
2022/04/14 14:08:26;;;;;;;;;;;21.80;31.40;;;;;;4989363;28;20704;-68
2022/04/14 14:10:53;;;;;;;;;;;21.90;32.20;;;;;;4982773;28;20024;-67
2022/04/14 14:13:20;;;;;;;;;;;21.90;31.50;;;;;;4990537;28;20163;-67
2022/04/14 14:15:47;;;;;;;;;;;21.90;30.90;;;;;;4985672;28;20054;-68
2022/04/14 14:18:14;;;;;;;;;;;21.80;32.60;;;;;;4985229;28;22414;-67
2022/04/14 14:20:43;;;;;;;;;;;21.80;31.70;;;;;;4984537;28;19933;-68
2022/04/14 14:23:10;;;;;;;;;;;21.70;31.60;;;;;;4984124;28;20711;-68
2022/04/14 14:25:39;;;;;;;;;;;21.60;30.00;;;;;;4985653;28;20290;-67
2022/04/14 14:28:06;;;;;;;;;;;21.70;31.40;;;;;;4984589;28;19933;-67
2022/04/14 14:30:33;;;;;;;;;;;21.70;30.20;;;;;;4985111;28;19964;-68